Guage, Kentucky
Current Conditions -  °F | °C
As of 3:53 AM on Friday 21 Nov 2014 (Local Time) from KJKL Reporting Station
Clear Clear  
Wind Chill: 16°   Ceiling: Unl
Heat Index: 22°   Visibility: 10mi
Dew Point: 15°   Wind: 5mph
Humidity: 75%   Direction: 240°WSW
Pressure: 30.35"   Gusts: NA
Location:  37.532°N, 83.3068°W
Report Text: KJKL 210853Z AUTO 24004KT 10SM CLR M06/M09 A3035 RMK AO2 SLP289 T10561094 51020
Loading
Personal Weather Stations






























Interactive Weather Map New forecast layout! Learn more

10-Day Weather Forecast

Advertisements
Track Severe Weather on mobile